Time;durP1;ratioP1;P1;durP2;ratioP2;P2;SDS_P1;SDS_P2;PMS_P1;PMS_P2;Temp;Humidity;BMP_temperature;BMP_pressure;BME280_temperature;BME280_humidity;BME280_pressure;Samples;Min_cycle;Max_cycle;Signal;HPM_P1;HPM_P2
2022/09/04 00:00:14;;;;;;;;;;;;;;;26.24;70.34;101090.66;2062780;28;19965;-74
2022/09/04 00:01:43;;;;;;;;;;;;;;;26.25;70.15;101078.03;2061479;28;19922;-74
2022/09/04 00:03:14;;;;;;;;;;;;;;;26.27;70.05;101076.09;2054537;28;19921;-73
2022/09/04 00:04:42;;;;;;;;;;;;;;;26.29;70.29;101075.09;2060988;28;19936;-75
2022/09/04 00:06:07;;;;;;;;;;;;;;;26.29;69.93;101071.50;2054477;28;19922;-74
2022/09/04 00:07:30;;;;;;;;;;;;;;;26.30;70.22;101074.16;2051325;28;19930;-73
2022/09/04 00:09:11;;;;;;;;;;;;;;;26.31;70.48;101077.75;2059299;28;19961;-73
2022/09/04 00:10:39;;;;;;;;;;;;;;;26.32;69.89;101076.81;2062182;28;19929;-74
2022/09/04 00:12:04;;;;;;;;;;;;;;;26.33;70.22;101078.53;2060145;28;19933;-74
2022/09/04 00:13:27;;;;;;;;;;;;;;;26.33;70.08;101083.94;2058959;28;19956;-74
2022/09/04 00:14:53;;;;;;;;;;;;;;;26.32;70.22;101085.78;2057370;28;19922;-73
2022/09/04 00:16:19;;;;;;;;;;;;;;;26.30;70.19;101081.41;2053938;28;19926;-74
2022/09/04 00:17:44;;;;;;;;;;;;;;;26.30;70.25;101081.41;2058080;28;19932;-73
2022/09/04 00:19:09;;;;;;;;;;;;;;;26.28;70.20;101086.88;2054085;28;19922;-74
2022/09/04 00:20:34;;;;;;;;;;;;;;;26.27;70.16;101076.09;2053722;28;20436;-73
2022/09/04 00:21:58;;;;;;;;;;;;;;;26.27;70.22;101084.22;2053828;28;19926;-74
2022/09/04 00:23:21;;;;;;;;;;;;;;;26.29;70.00;101077.81;2054991;28;19926;-73
2022/09/04 00:24:47;;;;;;;;;;;;;;;26.30;70.35;101076.88;2049526;28;19930;-74
2022/09/04 00:26:13;;;;;;;;;;;;;;;26.30;69.99;101075.97;2052959;28;19972;-74
2022/09/04 00:27:43;;;;;;;;;;;;;;;26.30;70.13;101084.09;2061349;28;20578;-73
2022/09/04 00:29:09;;;;;;;;;;;;;;;26.29;70.17;101087.75;2049536;29;19949;-73
2022/09/04 00:30:32;;;;;;;;;;;;;;;26.29;69.89;101085.03;2054367;28;19929;-74
2022/09/04 00:31:57;;;;;;;;;;;;;;;26.28;69.97;101081.47;2055202;28;19929;-73
2022/09/04 00:33:23;;;;;;;;;;;;;;;26.29;70.16;101082.34;2062900;28;20389;-73
2022/09/04 00:34:49;;;;;;;;;;;;;;;26.30;69.86;101087.69;2065736;28;19925;-73
2022/09/04 00:36:12;;;;;;;;;;;;;;;26.31;70.32;101077.75;2065764;28;19928;-74
2022/09/04 00:37:37;;;;;;;;;;;;;;;26.31;69.79;101078.63;2063216;28;20324;-73
2022/09/04 00:39:02;;;;;;;;;;;;;;;26.31;69.93;101083.16;2055144;28;19929;-74
2022/09/04 00:40:26;;;;;;;;;;;;;;;26.28;70.59;101084.16;2055209;28;19976;-73
2022/09/04 00:41:58;;;;;;;;;;;;;;;26.26;70.72;101082.47;2057730;28;19929;-73
2022/09/04 00:43:36;;;;;;;;;;;;;;;26.22;70.42;101080.81;2056134;28;20011;-74
2022/09/04 00:45:05;;;;;;;;;;;;;;;26.20;70.87;101087.16;2057628;28;20472;-74
2022/09/04 00:46:41;;;;;;;;;;;;;;;26.17;70.56;101087.31;2055937;28;20402;-74
2022/09/04 00:48:16;;;;;;;;;;;;;;;26.17;71.02;101086.44;2064568;28;19922;-74
2022/09/04 00:49:56;;;;;;;;;;;;;;;26.15;70.62;101085.63;2056641;28;19968;-74
2022/09/04 00:51:24;;;;;;;;;;;;;;;26.12;70.77;101092.03;2065429;28;19948;-74
2022/09/04 00:52:56;;;;;;;;;;;;;;;26.11;70.77;101093.00;2062904;28;20368;-74
2022/09/04 00:54:39;;;;;;;;;;;;;;;26.10;70.65;101088.53;2064377;28;19922;-73
2022/09/04 00:56:11;;;;;;;;;;;;;;;26.08;71.18;101087.72;2057476;28;20509;-74
2022/09/04 00:57:45;;;;;;;;;;;;;;;26.08;70.71;101087.72;2056170;28;20020;-74
2022/09/04 00:59:10;;;;;;;;;;;;;;;26.06;71.20;101081.47;2062094;28;20345;-73
2022/09/04 01:00:32;;;;;;;;;;;;;;;26.06;71.17;101086.00;2055378;28;20021;-74
2022/09/04 01:01:55;;;;;;;;;;;;;;;26.05;70.96;101089.69;2054728;28;20429;-73
2022/09/04 01:03:35;;;;;;;;;;;;;;;26.03;71.32;101092.44;2058036;28;20445;-74
2022/09/04 01:04:59;;;;;;;;;;;;;;;26.03;71.46;101100.56;2056530;28;20065;-73
2022/09/04 01:06:29;;;;;;;;;;;;;;;26.03;71.14;101097.88;2061131;28;19969;-73
2022/09/04 01:07:57;;;;;;;;;;;;;;;26.03;71.36;101096.97;2056450;28;19925;-73
2022/09/04 01:09:31;;;;;;;;;;;;;;;26.01;71.47;101090.75;2054284;28;19922;-73
2022/09/04 01:10:59;;;;;;;;;;;;;;;26.01;70.91;101098.84;2060870;28;20550;-74
2022/09/04 01:12:25;;;;;;;;;;;;;;;25.99;71.39;101096.22;2054828;28;19930;-74
2022/09/04 01:13:54;;;;;;;;;;;;;;;25.98;71.05;101091.78;2060873;28;20085;-74
2022/09/04 01:15:19;;;;;;;;;;;;;;;25.96;70.98;101090.06;2054824;28;19989;-74
2022/09/04 01:16:43;;;;;;;;;;;;;;;25.94;71.24;101098.25;2062366;28;20041;-74
2022/09/04 01:18:09;;;;;;;;;;;;;;;25.92;71.64;101094.75;2057438;28;19953;-74
2022/09/04 01:19:38;;;;;;;;;;;;;;;25.90;71.47;101087.63;2063463;28;19926;-73
2022/09/04 01:21:14;;;;;;;;;;;;;;;25.86;71.45;101089.59;2054217;28;19922;-74
2022/09/04 01:22:47;;;;;;;;;;;;;;;25.85;71.99;101087.84;2056642;28;19922;-74
2022/09/04 01:24:27;;;;;;;;;;;;;;;25.85;71.98;101087.84;2064376;28;19944;-74
2022/09/04 01:25:54;;;;;;;;;;;;;;;25.85;71.73;101093.25;2055460;28;20006;-74
2022/09/04 01:27:22;;;;;;;;;;;;;;;25.85;71.47;101089.66;2053305;28;19921;-75
2022/09/04 01:28:48;;;;;;;;;;;;;;;25.84;71.91;101085.19;2055401;28;19926;-74
2022/09/04 01:30:13;;;;;;;;;;;;;;;25.83;71.58;101086.13;2059109;28;19922;-74
2022/09/04 01:31:38;;;;;;;;;;;;;;;25.82;71.54;101085.25;2055083;28;19926;-74
2022/09/04 01:33:05;;;;;;;;;;;;;;;25.83;71.42;101094.25;2060973;28;19925;-75
2022/09/04 01:34:33;;;;;;;;;;;;;;;25.81;71.87;101091.59;2059923;28;19929;-75
2022/09/04 01:36:00;;;;;;;;;;;;;;;25.79;71.92;101088.09;2054523;28;20558;-75
2022/09/04 01:37:29;;;;;;;;;;;;;;;25.78;71.46;101086.31;2055578;28;19926;-74
2022/09/04 01:38:54;;;;;;;;;;;;;;;25.77;71.62;101095.38;2057259;28;19921;-75
2022/09/04 01:40:22;;;;;;;;;;;;;;;25.77;71.62;101085.44;2055028;28;19977;-74
2022/09/04 01:41:51;;;;;;;;;;;;;;;25.78;71.97;101094.44;2055197;28;19930;-74
2022/09/04 01:43:12;;;;;;;;;;;;;;;25.77;71.64;101089.97;2054062;28;19973;-74
2022/09/04 01:44:35;;;;;;;;;;;;;;;25.78;72.04;101103.44;2060088;28;19922;-74
2022/09/04 01:46:10;;;;;;;;;;;;;;;25.81;71.65;101105.13;2061632;28;20024;-75
2022/09/04 01:47:36;;;;;;;;;;;;;;;25.82;72.00;101103.28;2064408;28;19964;-75
2022/09/04 01:49:02;;;;;;;;;;;;;;;25.84;71.79;101096.88;2056855;28;19928;-75
2022/09/04 01:50:27;;;;;;;;;;;;;;;25.89;71.95;101096.69;2061575;28;19925;-74
2022/09/04 01:51:52;;;;;;;;;;;;;;;25.93;71.22;101103.75;2054794;28;19922;-74
2022/09/04 01:53:18;;;;;;;;;;;;;;;25.96;71.65;101099.06;2057277;28;19929;-74
2022/09/04 01:54:45;;;;;;;;;;;;;;;25.98;71.46;101099.91;2048902;29;19954;-74
2022/09/04 01:56:10;;;;;;;;;;;;;;;26.00;71.28;101097.09;2062419;28;20245;-75
2022/09/04 01:57:41;;;;;;;;;;;;;;;26.00;71.43;101097.09;2062256;28;20016;-74
2022/09/04 01:59:11;;;;;;;;;;;;;;;25.99;71.58;101100.78;2057264;28;20359;-74
2022/09/04 02:00:36;;;;;;;;;;;;;;;26.00;71.45;101097.09;2047271;28;19930;-74
2022/09/04 02:02:01;;;;;;;;;;;;;;;26.01;71.20;101097.03;2068811;28;19928;-74
2022/09/04 02:03:26;;;;;;;;;;;;;;;26.04;71.30;101090.63;2063367;28;19935;-74
2022/09/04 02:04:51;;;;;;;;;;;;;;;26.06;71.02;101095.00;2055327;28;19922;-74
2022/09/04 02:06:16;;;;;;;;;;;;;;;26.10;71.16;101093.94;2052600;28;20590;-73
2022/09/04 02:07:43;;;;;;;;;;;;;;;26.11;70.98;101094.81;2046773;28;19930;-74
2022/09/04 02:09:17;;;;;;;;;;;;;;;26.10;71.06;101099.34;2047052;29;19926;-74
2022/09/04 02:10:44;;;;;;;;;;;;;;;26.09;71.21;101094.88;2055885;28;20009;-73
2022/09/04 02:12:11;;;;;;;;;;;;;;;26.07;71.57;101090.47;2063259;28;19922;-74
2022/09/04 02:13:42;;;;;;;;;;;;;;;26.04;71.42;101087.91;2063218;28;19922;-74
2022/09/04 02:15:11;;;;;;;;;;;;;;;26.00;71.47;101089.84;2055497;28;20033;-73
2022/09/04 02:16:41;;;;;;;;;;;;;;;25.98;71.66;101089.06;2052848;28;19930;-74
2022/09/04 02:18:10;;;;;;;;;;;;;;;25.94;71.27;101087.41;2053742;28;19922;-74
2022/09/04 02:19:35;;;;;;;;;;;;;;;25.94;71.40;101095.53;2051689;28;19922;-73
2022/09/04 02:21:02;;;;;;;;;;;;;;;25.91;71.97;101082.16;2050166;28;19922;-75
2022/09/04 02:22:27;;;;;;;;;;;;;;;25.90;72.02;101090.34;2069313;28;20764;-74
2022/09/04 02:23:57;;;;;;;;;;;;;;;25.87;71.64;101088.63;2064237;28;20020;-74
2022/09/04 02:25:23;;;;;;;;;;;;;;;25.85;71.69;101086.94;2063265;28;20285;-74
2022/09/04 02:26:52;;;;;;;;;;;;;;;25.85;71.79;101092.34;2054600;28;19922;-74
2022/09/04 02:28:22;;;;;;;;;;;;;;;25.84;71.73;101087.88;2061226;28;20004;-74
2022/09/04 02:29:49;;;;;;;;;;;;;;;25.84;71.82;101085.19;2055261;28;20483;-75
2022/09/04 02:31:15;;;;;;;;;;;;;;;25.82;71.94;101087.94;2060776;28;19953;-74
2022/09/04 02:32:40;;;;;;;;;;;;;;;25.81;72.25;101083.47;2059933;28;19928;-75
2022/09/04 02:34:06;;;;;;;;;;;;;;;25.79;72.44;101090.78;2052963;28;19976;-74
2022/09/04 02:35:33;;;;;;;;;;;;;;;25.78;72.43;101091.75;2055006;28;19977;-75
2022/09/04 02:37:00;;;;;;;;;;;;;;;25.78;72.09;101091.75;2064504;28;19925;-74
2022/09/04 02:38:29;;;;;;;;;;;;;;;25.77;72.21;101084.56;2053224;28;19933;-74
2022/09/04 02:39:57;;;;;;;;;;;;;;;25.77;72.48;101096.25;2061698;28;19929;-74
2022/09/04 02:41:22;;;;;;;;;;;;;;;25.77;72.02;101092.69;2063166;28;20033;-74
2022/09/04 02:42:51;;;;;;;;;;;;;;;25.75;72.23;101089.16;2054608;28;20393;-74
2022/09/04 02:44:20;;;;;;;;;;;;;;;25.74;72.15;101080.16;2054373;28;20017;-75
2022/09/04 02:45:44;;;;;;;;;;;;;;;25.76;72.30;101086.38;2062808;28;20533;-75
2022/09/04 02:47:11;;;;;;;;;;;;;;;25.75;71.77;101095.44;2061277;28;19996;-74
2022/09/04 02:48:41;;;;;;;;;;;;;;;25.75;72.19;101095.44;2053583;28;19922;-76
2022/09/04 02:50:06;;;;;;;;;;;;;;;25.75;72.18;101094.56;2056305;28;20048;-74
2022/09/04 02:51:37;;;;;;;;;;;;;;;25.75;72.07;101091.84;2062640;28;19928;-74
2022/09/04 02:53:07;;;;;;;;;;;;;;;25.74;72.18;101101.78;2048383;29;20465;-75
2022/09/04 02:54:44;;;;;;;;;;;;;;;25.73;72.56;101099.16;2060626;28;19980;-75
2022/09/04 02:56:14;;;;;;;;;;;;;;;25.72;72.62;101095.59;2064302;28;19980;-75
2022/09/04 02:57:40;;;;;;;;;;;;;;;25.71;72.67;101092.94;2046898;29;20289;-75
2022/09/04 02:59:14;;;;;;;;;;;;;;;25.70;72.39;101096.56;2054123;28;20041;-74
2022/09/04 03:00:42;;;;;;;;;;;;;;;25.70;72.08;101097.47;2047648;29;19923;-74
2022/09/04 03:02:07;;;;;;;;;;;;;;;25.69;72.70;101105.63;2053254;28;19961;-74
2022/09/04 03:03:34;;;;;;;;;;;;;;;25.69;72.21;101103.81;2054036;28;20358;-74
2022/09/04 03:04:59;;;;;;;;;;;;;;;25.71;72.48;101103.75;2054384;28;20442;-75
2022/09/04 03:06:26;;;;;;;;;;;;;;;25.71;72.41;101101.06;2068212;28;19936;-74
2022/09/04 03:07:53;;;;;;;;;;;;;;;25.71;72.39;101101.94;2054973;28;20382;-74
2022/09/04 03:09:18;;;;;;;;;;;;;;;25.70;72.18;101105.56;2051368;28;20011;-74
2022/09/04 03:10:43;;;;;;;;;;;;;;;25.70;72.05;101105.56;2051710;28;20287;-74
2022/09/04 03:12:13;;;;;;;;;;;;;;;25.73;72.52;101100.03;2051722;28;19960;-75
2022/09/04 03:13:40;;;;;;;;;;;;;;;25.75;72.28;101099.97;2052395;28;19953;-74
2022/09/04 03:15:06;;;;;;;;;;;;;;;25.76;72.02;101097.19;2054076;28;19925;-74
2022/09/04 03:16:32;;;;;;;;;;;;;;;25.75;71.71;101103.56;2062586;28;19968;-74
2022/09/04 03:18:01;;;;;;;;;;;;;;;25.74;71.79;101104.50;2061558;28;20405;-75
2022/09/04 03:19:28;;;;;;;;;;;;;;;25.73;72.30;101104.59;2052904;28;20040;-74
2022/09/04 03:20:53;;;;;;;;;;;;;;;25.72;72.41;101102.81;2059892;28;19925;-74
2022/09/04 03:22:16;;;;;;;;;;;;;;;25.72;72.32;101103.69;2054154;28;20509;-74
2022/09/04 03:23:41;;;;;;;;;;;;;;;25.71;72.45;101101.94;2053951;28;19929;-75
2022/09/04 03:25:08;;;;;;;;;;;;;;;25.70;72.19;101099.28;2046409;29;20345;-74
2022/09/04 03:26:34;;;;;;;;;;;;;;;25.70;72.75;101105.56;2056890;28;20360;-74
2022/09/04 03:27:55;;;;;;;;;;;;;;;25.71;72.09;101099.22;2062152;28;20275;-74
2022/09/04 03:29:23;;;;;;;;;;;;;;;25.73;72.52;101105.44;2053018;28;19925;-74
2022/09/04 03:30:45;;;;;;;;;;;;;;;25.71;72.64;101101.94;2060692;28;19921;-75
2022/09/04 03:32:11;;;;;;;;;;;;;;;25.71;72.35;101101.94;2053287;28;19941;-75
2022/09/04 03:33:37;;;;;;;;;;;;;;;25.70;72.06;101105.56;2061339;28;19948;-74
2022/09/04 03:35:03;;;;;;;;;;;;;;;25.68;72.69;101095.75;2048333;29;19922;-74
2022/09/04 03:36:33;;;;;;;;;;;;;;;25.66;72.69;101105.78;2055666;28;20029;-74
2022/09/04 03:38:10;;;;;;;;;;;;;;;25.66;72.76;101105.78;2048432;29;19923;-75
2022/09/04 03:39:35;;;;;;;;;;;;;;;25.69;72.72;101106.50;2055261;28;20350;-74
2022/09/04 03:41:06;;;;;;;;;;;;;;;25.73;72.04;101104.59;2045995;29;19930;-75
2022/09/04 03:42:32;;;;;;;;;;;;;;;25.74;72.52;101104.50;2053393;28;20329;-75
2022/09/04 03:44:01;;;;;;;;;;;;;;;25.75;72.54;101108.97;2062443;28;20620;-74
2022/09/04 03:45:28;;;;;;;;;;;;;;;25.76;72.19;101102.63;2056226;28;19980;-74
2022/09/04 03:46:56;;;;;;;;;;;;;;;25.76;72.23;101105.31;2053536;28;19950;-74
2022/09/04 03:48:24;;;;;;;;;;;;;;;25.76;71.93;101108.03;2062172;28;19922;-75
2022/09/04 03:49:53;;;;;;;;;;;;;;;25.76;72.38;101105.31;2052674;28;19965;-74
2022/09/04 03:51:17;;;;;;;;;;;;;;;25.78;72.56;101098.03;2060779;28;19929;-74
2022/09/04 03:52:47;;;;;;;;;;;;;;;25.80;72.30;101104.22;2059712;28;19922;-74
2022/09/04 03:54:14;;;;;;;;;;;;;;;25.84;72.31;101106.81;2062777;28;20029;-75
2022/09/04 03:55:46;;;;;;;;;;;;;;;25.84;72.49;101109.53;2061098;28;19922;-74
2022/09/04 03:57:15;;;;;;;;;;;;;;;25.81;72.60;101102.41;2054730;28;20370;-75
2022/09/04 03:58:44;;;;;;;;;;;;;;;25.81;72.50;101105.13;2054776;28;20016;-75
2022/09/04 04:00:09;;;;;;;;;;;;;;;25.81;72.07;101107.81;2060988;28;20523;-74
2022/09/04 04:01:42;;;;;;;;;;;;;;;25.79;72.03;101105.22;2054670;28;19926;-75
2022/09/04 04:03:10;;;;;;;;;;;;;;;25.79;72.08;101118.72;2052506;28;20298;-74
2022/09/04 04:04:44;;;;;;;;;;;;;;;25.79;72.65;101112.44;2052732;28;20286;-74
2022/09/04 04:06:13;;;;;;;;;;;;;;;25.81;72.71;101110.53;2060558;28;19925;-75
2022/09/04 04:07:40;;;;;;;;;;;;;;;25.83;72.57;101111.34;2053585;28;19922;-74
2022/09/04 04:09:19;;;;;;;;;;;;;;;25.83;72.14;101110.47;2053994;28;19933;-74
2022/09/04 04:10:49;;;;;;;;;;;;;;;25.83;72.29;101118.59;2055554;28;19922;-74
2022/09/04 04:12:26;;;;;;;;;;;;;;;25.80;72.60;101115.06;2062528;28;20016;-74
2022/09/04 04:14:00;;;;;;;;;;;;;;;25.80;72.32;101111.47;2056056;28;19929;-74
2022/09/04 04:15:27;;;;;;;;;;;;;;;25.81;72.79;101115.94;2055465;28;20040;-75
2022/09/04 04:16:59;;;;;;;;;;;;;;;25.84;72.34;101115.81;2060869;28;20317;-74
2022/09/04 04:18:37;;;;;;;;;;;;;;;25.88;72.52;101111.16;2062832;28;20012;-75
2022/09/04 04:20:07;;;;;;;;;;;;;;;25.92;72.50;101113.69;2063973;28;19972;-74
2022/09/04 04:21:39;;;;;;;;;;;;;;;25.96;72.27;101111.72;2061681;28;20049;-74
2022/09/04 04:23:16;;;;;;;;;;;;;;;25.96;72.23;101118.00;2053661;28;20358;-74
2022/09/04 04:24:56;;;;;;;;;;;;;;;25.95;72.53;101120.78;2054724;28;19938;-75
2022/09/04 04:26:20;;;;;;;;;;;;;;;25.93;72.22;101118.13;2066358;28;20015;-74
2022/09/04 04:27:49;;;;;;;;;;;;;;;25.93;72.61;101126.25;2054758;28;19989;-74
2022/09/04 04:29:24;;;;;;;;;;;;;;;25.93;72.19;101126.25;2060324;28;19992;-74
2022/09/04 04:30:51;;;;;;;;;;;;;;;25.93;72.52;101126.25;2068900;28;19929;-74
2022/09/04 04:32:23;;;;;;;;;;;;;;;25.95;72.17;101128.88;2055606;28;19965;-74
2022/09/04 04:33:53;;;;;;;;;;;;;;;25.96;72.00;101122.53;2058696;28;19929;-74
2022/09/04 04:35:19;;;;;;;;;;;;;;;26.00;72.06;101129.56;2055896;28;19922;-74
2022/09/04 04:36:47;;;;;;;;;;;;;;;26.07;72.46;101131.06;2059645;28;19929;-75
2022/09/04 04:38:17;;;;;;;;;;;;;;;26.13;71.97;101125.38;2064104;28;20378;-75
2022/09/04 04:39:44;;;;;;;;;;;;;;;26.16;71.73;101126.16;2055645;28;20241;-74
2022/09/04 04:41:15;;;;;;;;;;;;;;;26.20;72.04;101125.06;2054173;28;19926;-74
2022/09/04 04:42:42;;;;;;;;;;;;;;;26.25;71.62;101130.34;2054371;28;19922;-74
2022/09/04 04:44:09;;;;;;;;;;;;;;;26.33;71.20;101133.56;2050080;28;19933;-74
2022/09/04 04:45:52;;;;;;;;;;;;;;;26.45;71.35;101137.59;2052164;28;19926;-74
2022/09/04 04:47:18;;;;;;;;;;;;;;;26.61;70.72;101135.94;2056142;28;20441;-74
2022/09/04 04:49:03;;;;;;;;;;;;;;;26.76;71.04;101132.56;2061904;28;20016;-74
2022/09/04 04:50:27;;;;;;;;;;;;;;;26.89;70.86;101135.63;2062930;28;20429;-73
2022/09/04 04:51:59;;;;;;;;;;;;;;;26.90;70.34;101131.97;2049828;28;20456;-73
2022/09/04 04:53:26;;;;;;;;;;;;;;;26.86;70.37;101133.88;2059178;28;19929;-73
2022/09/04 04:55:01;;;;;;;;;;;;;;;26.84;70.71;101135.81;2057603;28;20021;-74
2022/09/04 04:56:27;;;;;;;;;;;;;;;26.83;71.22;101134.03;2055683;28;19926;-73
2022/09/04 04:57:55;;;;;;;;;;;;;;;26.94;71.22;101145.28;2061222;28;19957;-74
2022/09/04 04:59:23;;;;;;;;;;;;;;;27.15;71.01;101140.69;2053584;28;20378;-74
2022/09/04 05:00:47;;;;;;;;;;;;;;;27.30;70.90;101137.28;2054829;28;20357;-74
2022/09/04 05:02:13;;;;;;;;;;;;;;;27.45;70.22;101137.47;2061718;28;19922;-74
2022/09/04 05:03:43;;;;;;;;;;;;;;;27.64;69.88;101143.78;2060864;28;20388;-74
2022/09/04 05:05:12;;;;;;;;;;;;;;;27.84;69.48;101142.81;2062136;28;19976;-74
2022/09/04 05:06:35;;;;;;;;;;;;;;;28.00;69.57;101144.69;2059716;28;20552;-73
2022/09/04 05:08:02;;;;;;;;;;;;;;;28.14;69.14;101149.44;2058665;28;20393;-74
2022/09/04 05:09:32;;;;;;;;;;;;;;;28.31;69.06;101140.41;2054771;28;20033;-74
2022/09/04 05:10:56;;;;;;;;;;;;;;;28.58;68.57;101136.25;2053525;28;20294;-74
2022/09/04 05:12:23;;;;;;;;;;;;;;;28.82;68.04;101136.81;2057818;28;20021;-74
2022/09/04 05:13:49;;;;;;;;;;;;;;;29.07;67.45;101131.81;2061179;28;20271;-73
2022/09/04 05:15:18;;;;;;;;;;;;;;;29.31;66.71;101132.25;2065070;28;20358;-74
2022/09/04 05:16:47;;;;;;;;;;;;;;;29.45;66.10;101124.25;2061685;28;19991;-74
2022/09/04 05:18:11;;;;;;;;;;;;;;;29.44;66.13;101130.63;2059768;28;20297;-73
2022/09/04 05:19:38;;;;;;;;;;;;;;;29.46;66.19;101136.00;2064069;28;20529;-75
2022/09/04 05:21:02;;;;;;;;;;;;;;;29.49;65.91;101130.38;2068778;28;20019;-74
2022/09/04 05:22:28;;;;;;;;;;;;;;;29.55;65.96;101133.63;2062703;28;20286;-75
2022/09/04 05:23:57;;;;;;;;;;;;;;;29.68;66.61;101136.50;2064230;28;19930;-74
2022/09/04 05:25:23;;;;;;;;;;;;;;;29.85;66.24;101139.16;2054534;28;19988;-74
2022/09/04 05:26:48;;;;;;;;;;;;;;;30.03;65.73;101139.94;2065917;28;19922;-76
2022/09/04 05:28:19;;;;;;;;;;;;;;;30.18;65.76;101133.56;2064137;28;19929;-74
2022/09/04 05:29:50;;;;;;;;;;;;;;;30.38;65.34;101129.66;2063544;28;19944;-74
2022/09/04 05:31:16;;;;;;;;;;;;;;;30.57;64.15;101133.03;2054837;28;19929;-75
2022/09/04 05:32:39;;;;;;;;;;;;;;;30.69;63.34;101135.00;2058066;28;20024;-74
2022/09/04 05:34:05;;;;;;;;;;;;;;;30.78;63.02;101133.56;2060181;28;20018;-75
2022/09/04 05:35:33;;;;;;;;;;;;;;;30.92;63.05;101139.00;2053882;28;19929;-75
2022/09/04 05:36:59;;;;;;;;;;;;;;;30.97;62.89;101128.69;2059479;28;20417;-74
2022/09/04 05:38:24;;;;;;;;;;;;;;;30.96;62.93;101131.50;2054165;28;20449;-74
2022/09/04 05:39:58;;;;;;;;;;;;;;;30.82;62.76;101138.72;2055034;28;19926;-74
2022/09/04 05:41:25;;;;;;;;;;;;;;;30.76;64.17;101130.91;2062307;28;20354;-75
2022/09/04 05:42:57;;;;;;;;;;;;;;;30.77;63.53;101127.22;2047325;29;19930;-74
2022/09/04 05:44:30;;;;;;;;;;;;;;;30.61;63.45;101126.41;2057501;28;19976;-75
2022/09/04 05:46:00;;;;;;;;;;;;;;;30.52;63.94;101123.38;2051997;28;19928;-75
2022/09/04 05:47:26;;;;;;;;;;;;;;;30.59;63.55;101128.34;2060419;28;20024;-75
2022/09/04 05:48:58;;;;;;;;;;;;;;;30.79;63.94;101133.44;2062085;28;19930;-74
2022/09/04 05:50:41;;;;;;;;;;;;;;;31.01;63.27;101127.50;2061816;28;19928;-74
2022/09/04 05:52:09;;;;;;;;;;;;;;;31.25;61.51;101130.53;2064909;28;19976;-74
2022/09/04 05:53:48;;;;;;;;;;;;;;;31.49;61.36;101136.28;2055469;28;20025;-75
2022/09/04 05:55:34;;;;;;;;;;;;;;;31.71;60.64;101130.28;2055979;28;20298;-75
2022/09/04 05:57:12;;;;;;;;;;;;;;;31.91;60.52;101127.97;2054942;28;19968;-75
2022/09/04 05:58:39;;;;;;;;;;;;;;;32.04;59.80;101138.94;2062951;28;19925;-74
2022/09/04 06:00:07;;;;;;;;;;;;;;;31.89;60.37;101140.88;2055461;28;19961;-74
2022/09/04 06:01:50;;;;;;;;;;;;;;;31.75;60.67;101132.72;2060954;28;19956;-74
2022/09/04 06:03:29;;;;;;;;;;;;;;;31.84;59.83;101139.41;2064323;28;19928;-74
2022/09/04 06:05:02;;;;;;;;;;;;;;;31.99;59.24;101125.59;2064828;28;19921;-74
2022/09/04 06:06:32;;;;;;;;;;;;;;;32.19;59.95;101137.94;2068670;28;19984;-74
2022/09/04 06:07:56;;;;;;;;;;;;;;;32.37;59.56;101128.44;2056044;28;19922;-74
2022/09/04 06:09:28;;;;;;;;;;;;;;;32.43;58.64;101133.50;2051341;28;19922;-74
2022/09/04 06:10:59;;;;;;;;;;;;;;;32.23;57.91;101150.38;2062289;28;20117;-74
2022/09/04 06:12:30;;;;;;;;;;;;;;;31.84;59.18;101144.88;2062826;28;19925;-74
2022/09/04 06:14:08;;;;;;;;;;;;;;;31.44;59.66;101136.53;2055328;28;20326;-74
2022/09/04 06:15:37;;;;;;;;;;;;;;;31.03;60.97;101132.88;2062920;28;19933;-74
2022/09/04 06:17:07;;;;;;;;;;;;;;;30.97;61.30;101136.88;2067162;28;20348;-73
2022/09/04 06:18:46;;;;;;;;;;;;;;;31.20;60.58;101139.03;2064017;28;20413;-74
2022/09/04 06:20:15;;;;;;;;;;;;;;;31.55;59.36;101147.66;2061233;28;20028;-74
2022/09/04 06:22:10;;;;;;;;;;;;;;;31.86;59.10;101142.91;2055063;28;19922;-74
2022/09/04 06:23:43;;;;;;;;;;;;;;;32.14;57.66;101151.03;2035899;29;19976;-74
2022/09/04 06:25:13;;;;;;;;;;;;;;;32.35;57.63;101155.03;2028839;29;19974;-74
2022/09/04 06:26:53;;;;;;;;;;;;;;;32.60;58.00;101147.84;2035769;29;19929;-74
2022/09/04 06:28:32;;;;;;;;;;;;;;;32.84;55.98;101147.03;2028244;29;19927;-74
2022/09/04 06:30:12;;;;;;;;;;;;;;;32.97;55.77;101151.63;2060365;28;19933;-74
2022/09/04 06:31:51;;;;;;;;;;;;;;;33.01;56.30;101143.09;2054648;28;19929;-74
2022/09/04 06:33:24;;;;;;;;;;;;;;;33.08;55.38;101143.53;2058818;28;19928;-74
2022/09/04 06:34:55;;;;;;;;;;;;;;;33.16;54.72;101152.91;2055209;28;19922;-73
2022/09/04 06:36:26;;;;;;;;;;;;;;;32.97;55.71;101149.75;2046452;29;19926;-74
2022/09/04 06:37:57;;;;;;;;;;;;;;;32.63;55.64;101158.56;2062070;28;19922;-74
2022/09/04 06:39:40;;;;;;;;;;;;;;;32.39;57.26;101162.03;2055197;28;19961;-76
2022/09/04 06:41:11;;;;;;;;;;;;;;;32.06;57.77;101159.72;2055563;28;19926;-76
2022/09/04 06:42:43;;;;;;;;;;;;;;;31.87;58.16;101155.59;2053549;28;20440;-78
2022/09/04 06:44:12;;;;;;;;;;;;;;;31.92;57.92;101156.16;2060508;28;19965;-79
2022/09/04 06:45:41;;;;;;;;;;;;;;;31.91;57.95;101149.81;2060714;28;21373;-77
2022/09/04 06:47:11;;;;;;;;;;;;;;;31.99;58.01;101157.50;2061985;28;19925;-76
2022/09/04 06:48:42;;;;;;;;;;;;;;;32.11;57.26;101153.06;2070215;28;19936;-75
2022/09/04 06:50:11;;;;;;;;;;;;;;;32.29;57.42;101155.47;2063948;28;20046;-74
2022/09/04 06:51:41;;;;;;;;;;;;;;;32.31;57.43;101161.69;2054955;28;19928;-75
2022/09/04 06:53:13;;;;;;;;;;;;;;;32.33;56.88;101167.94;2044868;28;20033;-74
2022/09/04 06:54:43;;;;;;;;;;;;;;;32.11;57.12;101162.13;2061854;28;19932;-74
2022/09/04 06:56:10;;;;;;;;;;;;;;;31.94;57.54;101159.69;2055556;28;20105;-74
2022/09/04 06:57:45;;;;;;;;;;;;;;;32.06;57.22;101162.47;2059878;28;19921;-74
2022/09/04 06:59:21;;;;;;;;;;;;;;;32.28;56.53;101167.38;2055422;28;19929;-74
2022/09/04 07:00:52;;;;;;;;;;;;;;;32.54;56.58;101164.69;2058505;28;19922;-75
2022/09/04 07:02:24;;;;;;;;;;;;;;;32.80;55.20;101158.31;2056951;28;19922;-75
2022/09/04 07:03:55;;;;;;;;;;;;;;;32.85;54.57;101167.06;2051578;28;19922;-75
2022/09/04 07:05:20;;;;;;;;;;;;;;;32.75;55.07;101165.97;2056778;28;19999;-76
2022/09/04 07:06:55;;;;;;;;;;;;;;;32.78;55.79;101163.88;2062282;28;19928;-75
2022/09/04 07:08:24;;;;;;;;;;;;;;;32.98;54.97;101167.06;2062593;28;20025;-75
2022/09/04 07:09:47;;;;;;;;;;;;;;;33.02;53.38;101171.31;2062473;28;19932;-75
2022/09/04 07:11:18;;;;;;;;;;;;;;;32.81;54.00;101168.25;2048223;28;20411;-75
2022/09/04 07:12:51;;;;;;;;;;;;;;;32.69;54.23;101174.59;2054786;28;19961;-75
2022/09/04 07:14:22;;;;;;;;;;;;;;;32.65;53.51;101173.91;2056742;28;19950;-75
2022/09/04 07:15:48;;;;;;;;;;;;;;;32.72;54.49;101174.38;2054126;28;20393;-75
2022/09/04 07:17:15;;;;;;;;;;;;;;;32.81;53.48;101182.81;2060258;28;19925;-75
2022/09/04 07:18:53;;;;;;;;;;;;;;;32.81;53.14;101185.56;2048983;28;19969;-75
2022/09/04 07:20:20;;;;;;;;;;;;;;;32.72;53.64;101196.25;2060694;28;19929;-75
2022/09/04 07:21:47;;;;;;;;;;;;;;;32.80;53.11;101189.28;2048768;28;20019;-75
2022/09/04 07:23:24;;;;;;;;;;;;;;;32.95;53.66;101192.75;2053163;28;20355;-76
2022/09/04 07:25:11;;;;;;;;;;;;;;;33.13;53.43;101187.84;2056861;28;19926;-75
2022/09/04 07:26:37;;;;;;;;;;;;;;;33.26;52.86;101186.03;2050834;28;20445;-75
2022/09/04 07:28:23;;;;;;;;;;;;;;;33.29;52.63;101190.38;2062223;28;19997;-76
2022/09/04 07:29:50;;;;;;;;;;;;;;;33.26;51.80;101188.75;2056542;28;19922;-75
2022/09/04 07:31:18;;;;;;;;;;;;;;;33.21;52.66;101189.06;2060059;28;20293;-76
2022/09/04 07:32:43;;;;;;;;;;;;;;;33.25;52.33;101195.22;2057150;28;19987;-76
2022/09/04 07:34:09;;;;;;;;;;;;;;;33.27;52.50;101185.03;2060855;28;20378;-74
2022/09/04 07:35:35;;;;;;;;;;;;;;;33.34;51.68;101190.94;2053817;28;19922;-75
2022/09/04 07:37:01;;;;;;;;;;;;;;;33.33;52.18;101194.66;2053779;28;19926;-75